createdAt,value
2023-01-04T00:00:13.291Z,101782.44
2023-01-04T00:02:39.753Z,101770.38
2023-01-04T00:05:06.472Z,101763.63
2023-01-04T00:07:32.782Z,101751.84
2023-01-04T00:09:59.114Z,101752.78
2023-01-04T00:12:25.439Z,101747.63
2023-01-04T00:14:51.818Z,101744.25
2023-01-04T00:17:19.527Z,101724.50
2023-01-04T00:19:45.816Z,101734.16
2023-01-04T00:22:12.109Z,101739.22
2023-01-04T00:24:38.404Z,101727.03
2023-01-04T00:27:04.713Z,101716.31
2023-01-04T00:29:31.064Z,101713.41
2023-01-04T00:31:57.414Z,101716.56
2023-01-04T00:34:25.049Z,101712.84
2023-01-04T00:36:51.337Z,101710.19
2023-01-04T00:39:17.788Z,101705.59
2023-01-04T00:42:01.242Z,101694.75
2023-01-04T00:44:28.047Z,101691.66
2023-01-04T00:46:54.426Z,101687.31
2023-01-04T00:49:20.729Z,101687.31
2023-01-04T00:51:48.393Z,101682.47
2023-01-04T00:54:15.320Z,101665.75
2023-01-04T00:56:41.744Z,101655.03
2023-01-04T00:59:08.035Z,101657.13
2023-01-04T01:01:35.126Z,101685.03
2023-01-04T01:04:03.174Z,101664.56
2023-01-04T01:06:30.372Z,101669.88
2023-01-04T01:08:58.169Z,101661.44
2023-01-04T01:11:24.454Z,101662.28
2023-01-04T01:13:50.888Z,101664.78
2023-01-04T01:16:27.338Z,101648.91
2023-01-04T01:19:04.310Z,101646.41
2023-01-04T01:21:30.639Z,101642.50
2023-01-04T01:23:58.260Z,101632.50
2023-01-04T01:26:25.305Z,101647.31
2023-01-04T01:28:51.664Z,101634.31
2023-01-04T01:31:19.102Z,101629.81
2023-01-04T01:33:46.582Z,101639.22
2023-01-04T01:36:13.413Z,101632.25
2023-01-04T01:38:40.079Z,101631.16
2023-01-04T01:41:08.967Z,101627.41
2023-01-04T01:43:59.146Z,101634.19
2023-01-04T01:46:28.768Z,101630.13
2023-01-04T01:48:56.733Z,101631.97
2023-01-04T01:51:23.227Z,101619.25
2023-01-04T01:53:53.552Z,101623.94
2023-01-04T01:56:21.210Z,101636.56
2023-01-04T01:58:50.838Z,101614.16
2023-01-04T02:01:17.566Z,101611.59
2023-01-04T02:03:44.481Z,101602.09
2023-01-04T02:06:12.468Z,101620.09
2023-01-04T02:08:40.130Z,101618.75
2023-01-04T02:11:06.471Z,101611.38
2023-01-04T02:13:35.228Z,101608.97
2023-01-04T02:16:06.086Z,101614.88
2023-01-04T02:18:37.275Z,101605.84
2023-01-04T02:21:06.571Z,101603.91
2023-01-04T02:24:06.361Z,101599.66
2023-01-04T02:26:46.035Z,101591.94
2023-01-04T02:29:25.857Z,101580.13
2023-01-04T02:31:55.688Z,101572.19
2023-01-04T02:34:29.428Z,101567.31
2023-01-04T02:36:58.803Z,101580.59
2023-01-04T02:39:34.337Z,101581.09
2023-01-04T02:42:06.927Z,101583.34
2023-01-04T02:44:37.979Z,101576.84
2023-01-04T02:47:07.609Z,101585.94
2023-01-04T02:49:34.149Z,101574.13
2023-01-04T02:52:00.462Z,101573.16
2023-01-04T02:54:28.243Z,101560.09
2023-01-04T02:57:05.175Z,101559.25
2023-01-04T02:59:55.656Z,101568.28
2023-01-04T03:02:34.345Z,101561.78
2023-01-04T03:05:05.188Z,101565.44
2023-01-04T03:07:38.284Z,101564.16
2023-01-04T03:10:07.581Z,101548.81
2023-01-04T03:12:38.552Z,101552.53
2023-01-04T03:15:09.378Z,101541.44
2023-01-04T03:17:39.399Z,101550.50
2023-01-04T03:20:07.107Z,101539.50
2023-01-04T03:22:35.870Z,101524.19
2023-01-04T03:25:02.759Z,101524.31
2023-01-04T03:27:29.176Z,101520.28
2023-01-04T03:29:59.928Z,101512.75
2023-01-04T03:32:28.034Z,101495.47
2023-01-04T03:34:56.102Z,101507.34
2023-01-04T03:37:24.579Z,101491.13
2023-01-04T03:40:00.018Z,101497.84
2023-01-04T03:42:29.971Z,101490.16
2023-01-04T03:45:05.987Z,101492.41
2023-01-04T03:47:41.191Z,101500.75
2023-01-04T03:50:12.045Z,101489.75
2023-01-04T03:52:40.084Z,101486.56
2023-01-04T03:55:08.181Z,101492.28
2023-01-04T03:57:34.856Z,101481.09
2023-01-04T04:00:05.132Z,101462.25
2023-01-04T04:02:33.110Z,101464.47
2023-01-04T04:04:59.456Z,101481.78
2023-01-04T04:07:27.645Z,101469.09
2023-01-04T04:09:53.954Z,101450.97
2023-01-04T04:12:20.249Z,101456.94
2023-01-04T04:14:46.563Z,101467.72
2023-01-04T04:17:12.860Z,101467.97
2023-01-04T04:19:39.148Z,101462.94
2023-01-04T04:22:05.532Z,101458.63
2023-01-04T04:24:33.194Z,101459.19
2023-01-04T04:26:59.503Z,101448.44
2023-01-04T04:29:25.826Z,101451.09
2023-01-04T04:31:52.340Z,101443.25
2023-01-04T04:34:18.676Z,101442.84
2023-01-04T04:36:45.129Z,101434.91
2023-01-04T04:39:11.543Z,101436.03
2023-01-04T04:41:39.346Z,101437.41
2023-01-04T04:44:05.835Z,101423.44
2023-01-04T04:46:32.164Z,101412.59
2023-01-04T04:48:58.596Z,101416.75
2023-01-04T04:51:24.910Z,101408.13
2023-01-04T04:53:51.211Z,101413.38
2023-01-04T04:56:17.577Z,101402.09
2023-01-04T04:58:45.269Z,101410.91
2023-01-04T05:01:11.970Z,101410.91
2023-01-04T05:03:38.422Z,101403.91
2023-01-04T05:06:04.944Z,101405.31
2023-01-04T05:08:31.410Z,101408.28
2023-01-04T05:10:57.686Z,101411.75
2023-01-04T05:13:24.282Z,101417.34
2023-01-04T05:15:52.515Z,101409.53
2023-01-04T05:18:20.060Z,101389.84
2023-01-04T05:20:46.402Z,101395.00
2023-01-04T05:23:13.751Z,101395.72
2023-01-04T05:25:40.083Z,101394.19
2023-01-04T05:28:06.726Z,101394.31
2023-01-04T05:30:33.094Z,101396.97
2023-01-04T05:33:01.161Z,101382.59
2023-01-04T05:35:27.729Z,101374.06
2023-01-04T05:37:54.040Z,101385.38
2023-01-04T05:40:20.432Z,101393.34
2023-01-04T05:42:47.003Z,101387.06
2023-01-04T05:45:13.834Z,101378.25
2023-01-04T05:47:40.418Z,101375.06
2023-01-04T05:50:08.940Z,101380.06
2023-01-04T05:52:35.529Z,101370.72
2023-01-04T05:55:02.090Z,101368.78
2023-01-04T05:57:28.425Z,101372.66
2023-01-04T05:59:54.776Z,101366.53
2023-01-04T06:02:22.695Z,101361.38
2023-01-04T06:04:54.628Z,101356.06
2023-01-04T06:07:26.183Z,101336.91
2023-01-04T06:09:52.502Z,101351.03
2023-01-04T06:12:18.826Z,101351.16
2023-01-04T06:14:45.141Z,101358.88
2023-01-04T06:17:11.564Z,101356.63
2023-01-04T06:19:37.990Z,101348.09
2023-01-04T06:22:04.460Z,101349.50
2023-01-04T06:24:32.089Z,101348.78
2023-01-04T06:26:58.366Z,101345.13
2023-01-04T06:29:24.646Z,101350.16
2023-01-04T06:31:51.179Z,101354.78
2023-01-04T06:34:17.650Z,101349.47
2023-01-04T06:36:43.951Z,101350.59
2023-01-04T06:39:10.262Z,101356.59
2023-01-04T06:41:38.322Z,101354.78
2023-01-04T06:44:04.951Z,101354.78
2023-01-04T06:46:31.296Z,101352.25
2023-01-04T06:48:57.668Z,101347.38
2023-01-04T06:51:24.268Z,101340.81
2023-01-04T06:53:50.560Z,101352.00
2023-01-04T06:56:16.876Z,101337.16
2023-01-04T06:58:44.542Z,101350.03
2023-01-04T07:01:11.191Z,101343.28
2023-01-04T07:03:37.633Z,101341.09
2023-01-04T07:06:04.353Z,101337.59
2023-01-04T07:08:30.660Z,101333.41
2023-01-04T07:10:57.005Z,101339.13
2023-01-04T07:13:23.326Z,101328.66
2023-01-04T07:15:51.150Z,101332.13
2023-01-04T07:18:17.474Z,101336.31
2023-01-04T07:20:44.189Z,101322.72
2023-01-04T07:23:10.609Z,101318.47
2023-01-04T07:25:36.920Z,101327.00
2023-01-04T07:28:03.570Z,101316.81
2023-01-04T07:30:30.040Z,101318.38
2023-01-04T07:32:58.033Z,101322.00
2023-01-04T07:35:24.526Z,101322.16
2023-01-04T07:37:57.860Z,101302.13
2023-01-04T07:40:25.349Z,101292.47
2023-01-04T07:42:55.232Z,101285.34
2023-01-04T07:45:21.517Z,101291.22
2023-01-04T07:47:47.834Z,101287.94
2023-01-04T07:50:15.626Z,101293.13
2023-01-04T07:52:41.911Z,101293.44
2023-01-04T07:55:08.737Z,101285.00
2023-01-04T07:57:35.036Z,101290.59
2023-01-04T08:00:01.407Z,101278.84
2023-01-04T08:02:27.801Z,101274.31
2023-01-04T08:04:55.744Z,101276.91
2023-01-04T08:07:23.448Z,101265.44
2023-01-04T08:09:49.733Z,101278.00
2023-01-04T08:12:16.057Z,101273.69
2023-01-04T08:14:42.379Z,101291.16
2023-01-04T08:17:09.582Z,101283.03
2023-01-04T08:19:35.930Z,101280.75
2023-01-04T08:22:02.215Z,101281.09
2023-01-04T08:24:29.840Z,101279.34
2023-01-04T08:26:56.180Z,101277.13
2023-01-04T08:29:22.515Z,101282.00
2023-01-04T08:31:48.898Z,101285.22
2023-01-04T08:34:15.267Z,101291.06
2023-01-04T08:36:45.712Z,101291.06
2023-01-04T08:39:11.997Z,101288.53
2023-01-04T08:41:57.355Z,101279.59
2023-01-04T08:44:25.130Z,101285.75
2023-01-04T08:46:52.356Z,101282.59
2023-01-04T08:49:18.949Z,101298.69
2023-01-04T08:51:45.336Z,101281.06
2023-01-04T08:54:11.724Z,101276.91
2023-01-04T08:56:38.120Z,101293.78
2023-01-04T08:59:06.211Z,101291.44
2023-01-04T09:01:32.668Z,101295.25
2023-01-04T09:03:59.091Z,101297.34
2023-01-04T09:06:25.870Z,101299.19
2023-01-04T09:08:52.179Z,101290.28
2023-01-04T09:11:19.319Z,101288.53
2023-01-04T09:13:46.264Z,101285.31
2023-01-04T09:16:14.846Z,101290.47
2023-01-04T09:18:41.254Z,101294.25
2023-01-04T09:21:08.256Z,101292.16
2023-01-04T09:23:34.558Z,101290.47
2023-01-04T09:26:09.257Z,101298.38
2023-01-04T09:28:36.136Z,101303.44
2023-01-04T09:31:05.209Z,101304.97
2023-01-04T09:34:11.421Z,101305.66
2023-01-04T09:36:19.564Z,101314.88
2023-01-04T09:38:45.914Z,101300.91
2023-01-04T09:41:18.138Z,101308.03
2023-01-04T09:43:46.839Z,101303.91
2023-01-04T09:46:18.551Z,101314.78
2023-01-04T09:48:47.903Z,101321.72
2023-01-04T09:51:16.673Z,101317.84
2023-01-04T09:53:44.837Z,101320.59
2023-01-04T09:56:16.800Z,101317.00
2023-01-04T09:58:43.650Z,101317.78
2023-01-04T10:01:12.919Z,101311.28
2023-01-04T10:03:39.983Z,101306.94
2023-01-04T10:06:10.379Z,101312.19
2023-01-04T10:08:36.841Z,101313.81
2023-01-04T10:11:11.606Z,101310.22
2023-01-04T10:13:44.814Z,101287.81
2023-01-04T10:16:17.356Z,101287.66
2023-01-04T10:21:37.727Z,101289.00
2023-01-04T10:24:13.944Z,101285.00
2023-01-04T10:26:45.223Z,101280.19
2023-01-04T10:29:23.786Z,101277.53
2023-01-04T10:31:52.529Z,101283.41
2023-01-04T10:34:23.335Z,101282.25
2023-01-04T10:36:52.049Z,101279.44
2023-01-04T10:39:22.631Z,101271.91
2023-01-04T10:41:53.830Z,101264.31
2023-01-04T10:44:25.299Z,101271.06
2023-01-04T10:46:57.242Z,101264.91
2023-01-04T10:49:27.590Z,101261.66
2023-01-04T10:51:57.909Z,101263.31
2023-01-04T10:54:28.463Z,101258.16
2023-01-04T10:57:00.166Z,101259.66
2023-01-04T10:59:33.501Z,101258.56
2023-01-04T11:02:02.320Z,101247.47
2023-01-04T11:04:33.095Z,101252.09
2023-01-04T11:07:05.654Z,101253.91
2023-01-04T11:09:34.949Z,101247.47
2023-01-04T11:12:02.281Z,101230.31
2023-01-04T11:14:35.144Z,101241.06
2023-01-04T11:17:04.342Z,101234.75
2023-01-04T11:19:30.876Z,101242.34
2023-01-04T11:21:59.181Z,101236.41
2023-01-04T11:24:33.171Z,101236.88
2023-01-04T11:27:04.292Z,101243.88
2023-01-04T11:29:33.559Z,101232.38
2023-01-04T11:32:02.748Z,101231.28
2023-01-04T11:34:46.084Z,101231.94
2023-01-04T11:37:26.783Z,101237.72
2023-01-04T11:40:10.461Z,101236.72
2023-01-04T11:42:36.805Z,101233.53
2023-01-04T11:45:03.456Z,101239.22
2023-01-04T11:47:32.985Z,101231.25
2023-01-04T11:49:59.773Z,101228.09
2023-01-04T11:52:28.551Z,101231.69
2023-01-04T11:54:55.033Z,101228.06
2023-01-04T11:57:22.719Z,101224.75
2023-01-04T12:00:06.628Z,101236.09
2023-01-04T12:03:00.155Z,101228.47
2023-01-04T12:05:28.909Z,101224.97
2023-01-04T12:07:57.201Z,101218.81
2023-01-04T12:10:24.565Z,101216.94
2023-01-04T12:12:52.439Z,101210.31
2023-01-04T12:15:23.667Z,101192.66
2023-01-04T12:17:53.063Z,101216.75
2023-01-04T12:20:20.328Z,101218.81
2023-01-04T12:22:47.140Z,101217.44
2023-01-04T12:25:25.441Z,101216.00
2023-01-04T12:27:53.251Z,101217.84
2023-01-04T12:30:33.923Z,101234.66
2023-01-04T12:33:00.250Z,101206.66
2023-01-04T12:35:59.578Z,101219.97
2023-01-04T12:38:44.283Z,101214.78
2023-01-04T12:41:10.597Z,101202.31
2023-01-04T12:43:44.741Z,101204.81
2023-01-04T12:46:41.081Z,101190.38
2023-01-04T12:49:22.304Z,101207.97
2023-01-04T12:52:12.901Z,101206.19
2023-01-04T12:54:44.392Z,101209.00
2023-01-04T12:57:11.592Z,101213.19
2023-01-04T12:59:39.997Z,101207.75
2023-01-04T13:02:15.065Z,101198.56
2023-01-04T13:04:41.955Z,101196.94
2023-01-04T13:07:13.903Z,101198.41
2023-01-04T13:09:46.498Z,101195.75
2023-01-04T13:12:20.205Z,101195.91
2023-01-04T13:14:50.030Z,101208.84
2023-01-04T13:17:20.854Z,101194.38
2023-01-04T13:19:47.701Z,101196.03
2023-01-04T13:22:24.957Z,101197.72
2023-01-04T13:24:55.074Z,101194.06
2023-01-04T13:27:22.166Z,101184.56
2023-01-04T13:29:50.755Z,101183.41
2023-01-04T13:32:21.269Z,101196.94
2023-01-04T13:34:50.763Z,101195.91
2023-01-04T13:37:22.868Z,101191.72
2023-01-04T13:39:49.921Z,101188.13
2023-01-04T13:42:21.337Z,101190.06
2023-01-04T13:47:46.438Z,101207.78
2023-01-04T13:50:27.899Z,101206.81
2023-01-04T13:53:06.259Z,101207.63
2023-01-04T13:55:34.161Z,101196.69
2023-01-04T13:58:02.658Z,101190.25
2023-01-04T14:00:34.665Z,101179.97
2023-01-04T14:03:08.600Z,101192.00
2023-01-04T14:05:35.523Z,101188.16
2023-01-04T14:08:02.278Z,101192.84
2023-01-04T14:10:28.616Z,101193.19
2023-01-04T14:12:54.953Z,101187.03
2023-01-04T14:15:22.231Z,101178.03
2023-01-04T14:17:51.228Z,101187.03
2023-01-04T14:20:32.082Z,101185.22
2023-01-04T14:22:58.707Z,101178.53
2023-01-04T14:25:36.155Z,101178.53
2023-01-04T14:28:19.093Z,101175.09
2023-01-04T14:30:45.841Z,101172.63
2023-01-04T14:33:16.357Z,101173.28
2023-01-04T14:35:47.694Z,101178.75
2023-01-04T14:38:17.616Z,101175.28
2023-01-04T14:40:44.102Z,101169.50
2023-01-04T14:43:29.049Z,101167.00
2023-01-04T14:45:55.862Z,101173.69
2023-01-04T14:48:24.202Z,101163.03
2023-01-04T14:50:50.696Z,101168.91
2023-01-04T14:53:17.031Z,101180.34
2023-01-04T14:55:43.356Z,101171.69
2023-01-04T14:58:09.676Z,101160.53
2023-01-04T15:00:35.992Z,101171.34
2023-01-04T15:03:02.406Z,101167.47
2023-01-04T15:05:34.138Z,101190.00
2023-01-04T15:08:02.071Z,101175.00
2023-01-04T15:10:29.987Z,101175.19
2023-01-04T15:12:56.563Z,101183.69
2023-01-04T15:15:23.154Z,101184.41
2023-01-04T15:17:49.547Z,101182.72
2023-01-04T15:20:15.999Z,101191.34
2023-01-04T15:22:43.657Z,101175.72
2023-01-04T15:25:10.552Z,101186.53
2023-01-04T15:27:41.949Z,101185.06
2023-01-04T15:30:09.822Z,101189.44
2023-01-04T15:32:36.183Z,101189.72
2023-01-04T15:35:02.741Z,101190.03
2023-01-04T15:37:29.028Z,101174.88
2023-01-04T15:40:01.957Z,101173.56
2023-01-04T15:42:29.325Z,101176.53
2023-01-04T15:44:55.742Z,101183.00
2023-01-04T15:47:22.035Z,101177.97
2023-01-04T15:49:48.352Z,101173.16
2023-01-04T15:52:14.867Z,101188.72
2023-01-04T15:54:41.405Z,101176.88
2023-01-04T15:57:09.063Z,101173.56
2023-01-04T15:59:35.363Z,101184.50
2023-01-04T16:02:01.756Z,101180.19
2023-01-04T16:04:28.149Z,101179.88
2023-01-04T16:06:54.475Z,101195.34
2023-01-04T16:09:20.822Z,101199.53
2023-01-04T16:11:47.158Z,101182.53
2023-01-04T16:14:14.813Z,101176.97
2023-01-04T16:16:41.207Z,101170.97
2023-01-04T16:19:07.589Z,101179.16
2023-01-04T16:21:33.892Z,101185.13
2023-01-04T16:24:06.859Z,101175.53
2023-01-04T16:26:39.426Z,101170.50
2023-01-04T16:29:05.975Z,101173.75
2023-01-04T16:31:34.312Z,101176.16
2023-01-04T16:34:00.642Z,101176.47
2023-01-04T16:36:26.933Z,101178.41
2023-01-04T16:38:53.237Z,101163.09
2023-01-04T16:41:20.296Z,101162.25
2023-01-04T16:43:47.684Z,101160.13
2023-01-04T16:46:17.402Z,101145.16
2023-01-04T16:48:45.948Z,101158.84
2023-01-04T16:51:12.372Z,101168.38
2023-01-04T16:53:39.072Z,101179.19
2023-01-04T16:56:05.844Z,101173.31
2023-01-04T16:58:32.492Z,101181.28
2023-01-04T17:01:05.103Z,101165.19
2023-01-04T17:03:31.536Z,101168.84
2023-01-04T17:05:59.213Z,101173.81
2023-01-04T17:08:27.247Z,101183.53
2023-01-04T17:10:53.674Z,101182.00
2023-01-04T17:13:19.941Z,101183.44
2023-01-04T17:15:46.236Z,101183.06
2023-01-04T17:18:12.579Z,101190.44
2023-01-04T17:20:38.881Z,101179.31
2023-01-04T17:23:06.727Z,101182.72
2023-01-04T17:25:33.065Z,101171.47
2023-01-04T17:27:59.461Z,101176.16
2023-01-04T17:30:25.768Z,101187.78
2023-01-04T17:32:52.098Z,101186.34
2023-01-04T17:35:18.501Z,101198.97
2023-01-04T17:37:44.833Z,101193.81
2023-01-04T17:40:15.193Z,101200.19
2023-01-04T17:42:45.400Z,101208.47
2023-01-04T17:45:11.670Z,101218.91
2023-01-04T17:47:38.027Z,101219.94
2023-01-04T17:50:04.764Z,101218.31
2023-01-04T17:52:31.735Z,101210.63
2023-01-04T17:54:58.229Z,101214.91
2023-01-04T17:57:28.209Z,101214.41
2023-01-04T17:59:54.578Z,101211.72
2023-01-04T18:02:20.968Z,101218.41
2023-01-04T18:04:47.365Z,101203.13
2023-01-04T18:07:13.807Z,101223.75
2023-01-04T18:09:42.016Z,101212.13
2023-01-04T18:12:08.323Z,101208.44
2023-01-04T18:14:35.947Z,101214.06
2023-01-04T18:17:02.360Z,101223.88
2023-01-04T18:19:29.636Z,101251.56
2023-01-04T18:21:56.309Z,101255.34
2023-01-04T18:24:35.963Z,101265.03
2023-01-04T18:27:20.774Z,101268.69
2023-01-04T18:29:49.522Z,101275.91
2023-01-04T18:32:15.907Z,101288.25
2023-01-04T18:34:42.242Z,101279.03
2023-01-04T18:37:08.526Z,101254.78
2023-01-04T18:39:34.839Z,101236.84
2023-01-04T18:42:01.170Z,101231.88
2023-01-04T18:44:35.489Z,101234.38
2023-01-04T18:47:04.879Z,101236.00
2023-01-04T18:49:31.435Z,101228.31
2023-01-04T18:51:57.771Z,101237.78
2023-01-04T18:54:24.165Z,101236.53
2023-01-04T18:56:52.258Z,101245.84
2023-01-04T18:59:23.550Z,101245.69
2023-01-04T19:01:49.953Z,101246.69
2023-01-04T19:04:17.727Z,101262.91
2023-01-04T19:06:44.049Z,101249.16
2023-01-04T19:09:10.411Z,101255.84
2023-01-04T19:11:36.742Z,101272.03
2023-01-04T19:14:03.381Z,101274.84
2023-01-04T19:16:32.591Z,101281.22
2023-01-04T19:18:59.553Z,101281.31
2023-01-04T19:21:27.312Z,101281.31
2023-01-04T19:23:53.615Z,101273.03
2023-01-04T19:26:20.031Z,101277.16
2023-01-04T19:28:46.418Z,101259.50
2023-01-04T19:31:13.237Z,101273.59
2023-01-04T19:33:39.711Z,101270.91
2023-01-04T19:36:06.804Z,101282.50
2023-01-04T19:38:34.682Z,101280.03
2023-01-04T19:41:01.381Z,101286.00
2023-01-04T19:43:27.751Z,101293.16
2023-01-04T19:45:54.415Z,101281.84
2023-01-04T19:48:20.762Z,101273.28
2023-01-04T19:50:47.077Z,101274.44
2023-01-04T19:53:13.426Z,101295.59
2023-01-04T19:55:41.086Z,101282.44
2023-01-04T19:58:07.687Z,101304.66
2023-01-04T20:00:34.269Z,101299.41
2023-01-04T20:03:00.778Z,101298.25
2023-01-04T20:05:29.610Z,101290.91
2023-01-04T20:07:55.903Z,101278.09
2023-01-04T20:10:22.238Z,101268.69
2023-01-04T20:12:52.474Z,101285.41
2023-01-04T20:15:18.823Z,101283.22
2023-01-04T20:17:45.167Z,101278.09
2023-01-04T20:20:11.480Z,101283.06
2023-01-04T20:22:37.799Z,101289.69
2023-01-04T20:25:04.414Z,101296.63
2023-01-04T20:27:34.991Z,101305.59
2023-01-04T20:30:02.704Z,101311.22
2023-01-04T20:32:29.119Z,101309.25
2023-01-04T20:34:55.466Z,101315.41
2023-01-04T20:37:21.769Z,101316.25
2023-01-04T20:39:48.066Z,101315.72
2023-01-04T20:42:14.381Z,101312.56
2023-01-04T20:44:40.727Z,101304.47
2023-01-04T20:47:10.813Z,101308.28
2023-01-04T20:49:37.129Z,101323.84
2023-01-04T20:52:03.570Z,101320.22
2023-01-04T20:54:29.911Z,101321.94
2023-01-04T20:56:56.306Z,101314.88
2023-01-04T20:59:22.624Z,101326.97
2023-01-04T21:01:49.043Z,101321.88
2023-01-04T21:04:16.795Z,101323.63
2023-01-04T21:06:43.438Z,101333.13
2023-01-04T21:09:09.784Z,101340.91
2023-01-04T21:11:36.089Z,101339.09
2023-01-04T21:14:02.426Z,101344.56
2023-01-04T21:16:28.823Z,101349.34
2023-01-04T21:18:55.142Z,101338.84
2023-01-04T21:21:22.798Z,101342.97
2023-01-04T21:23:54.563Z,101346.38
2023-01-04T21:26:24.005Z,101352.75
2023-01-04T21:28:50.422Z,101335.75
2023-01-04T21:31:17.648Z,101335.81
2023-01-04T21:33:44.048Z,101340.22
2023-01-04T21:36:11.058Z,101352.00
2023-01-04T21:38:38.834Z,101346.38
2023-01-04T21:41:08.304Z,101349.81
2023-01-04T21:43:34.640Z,101345.75
2023-01-04T21:46:03.726Z,101349.66
2023-01-04T21:48:30.107Z,101356.34
2023-01-04T21:50:58.422Z,101348.06
2023-01-04T21:53:24.779Z,101342.66
2023-01-04T21:55:58.182Z,101341.66
2023-01-04T21:58:24.517Z,101355.66
2023-01-04T22:00:50.865Z,101343.97
2023-01-04T22:03:17.190Z,101341.00
2023-01-04T22:05:43.549Z,101338.78
2023-01-04T22:08:09.878Z,101353.69
2023-01-04T22:10:36.174Z,101345.25
2023-01-04T22:13:03.854Z,101334.06
2023-01-04T22:15:30.341Z,101332.72
2023-01-04T22:17:56.698Z,101340.44
2023-01-04T22:20:23.022Z,101345.25
2023-01-04T22:22:49.386Z,101354.59
2023-01-04T22:25:15.837Z,101356.19
2023-01-04T22:27:42.333Z,101348.44
2023-01-04T22:30:10.707Z,101340.91
2023-01-04T22:32:37.010Z,101352.84
2023-01-04T22:35:03.915Z,101348.00
2023-01-04T22:37:30.259Z,101349.59
2023-01-04T22:39:56.603Z,101362.91
2023-01-04T22:42:22.914Z,101358.00
2023-01-04T22:44:49.315Z,101369.00
2023-01-04T22:47:17.023Z,101378.50
2023-01-04T22:49:43.347Z,101363.50
2023-01-04T22:52:09.708Z,101372.78
2023-01-04T22:54:36.067Z,101370.88
2023-01-04T22:57:02.363Z,101379.16
2023-01-04T22:59:28.706Z,101380.75
2023-01-04T23:01:55.136Z,101374.84
2023-01-04T23:04:22.975Z,101380.84
2023-01-04T23:06:49.312Z,101376.22
2023-01-04T23:09:16.885Z,101376.81
2023-01-04T23:11:43.560Z,101386.34
2023-01-04T23:14:12.099Z,101389.44
2023-01-04T23:16:38.809Z,101380.41
2023-01-04T23:19:06.034Z,101395.47
2023-01-04T23:21:34.438Z,101395.41
2023-01-04T23:24:00.907Z,101401.28
2023-01-04T23:26:28.144Z,101405.78
2023-01-04T23:28:54.473Z,101400.16
2023-01-04T23:31:22.944Z,101395.59
2023-01-04T23:33:51.592Z,101399.63
2023-01-04T23:36:19.240Z,101409.34
2023-01-04T23:38:50.013Z,101404.34
2023-01-04T23:41:16.383Z,101402.31
2023-01-04T23:43:42.717Z,101409.16
2023-01-04T23:48:35.582Z,101407.91
2023-01-04T23:51:01.908Z,101406.94
2023-01-04T23:53:28.227Z,101424.59
2023-01-04T23:55:57.392Z,101429.00
2023-01-04T23:58:24.168Z,101428.31
